createdAt,value
2022-09-18T00:00:13.264Z,1.10
2022-09-18T00:02:40.214Z,1.45
2022-09-18T00:05:07.428Z,1.40
2022-09-18T00:07:34.212Z,1.05
2022-09-18T00:10:00.955Z,1.45
2022-09-18T00:12:27.664Z,1.42
2022-09-18T00:14:54.406Z,1.33
2022-09-18T00:17:21.144Z,1.05
2022-09-18T00:19:47.937Z,1.63
2022-09-18T00:22:14.665Z,1.42
2022-09-18T00:24:41.386Z,1.83
2022-09-18T00:27:08.086Z,2.65
2022-09-18T00:29:34.819Z,2.03
2022-09-18T00:32:01.785Z,1.75
2022-09-18T00:34:28.587Z,2.30
2022-09-18T00:36:55.322Z,1.38
2022-09-18T00:39:22.204Z,1.38
2022-09-18T00:41:48.933Z,1.52
2022-09-18T00:44:31.004Z,1.30
2022-09-18T00:47:04.766Z,1.30
2022-09-18T00:49:31.995Z,1.50
2022-09-18T00:52:01.640Z,1.20
2022-09-18T00:54:36.832Z,1.30
2022-09-18T00:57:11.171Z,1.33
2022-09-18T00:59:42.225Z,1.10
2022-09-18T01:02:09.541Z,1.45
2022-09-18T01:04:36.504Z,1.30
2022-09-18T01:07:09.189Z,1.52
2022-09-18T01:09:48.290Z,1.63
2022-09-18T01:12:24.597Z,1.33
2022-09-18T01:15:34.891Z,1.45
2022-09-18T01:18:31.217Z,1.30
2022-09-18T01:21:13.521Z,1.40
2022-09-18T01:23:57.355Z,1.35
2022-09-18T01:26:46.831Z,1.45
2022-09-18T01:29:38.503Z,1.45
2022-09-18T01:32:20.356Z,1.75
2022-09-18T01:34:57.779Z,1.13
2022-09-18T01:37:36.274Z,1.33
2022-09-18T01:40:07.056Z,1.30
2022-09-18T01:42:36.379Z,1.40
2022-09-18T01:45:09.945Z,1.45
2022-09-18T01:47:46.594Z,1.40
2022-09-18T01:50:16.639Z,1.20
2022-09-18T01:52:55.829Z,1.52
2022-09-18T01:55:26.464Z,1.15
2022-09-18T01:57:56.603Z,1.60
2022-09-18T02:00:25.191Z,1.15
2022-09-18T02:03:02.411Z,1.67
2022-09-18T02:05:35.361Z,1.65
2022-09-18T02:08:08.061Z,1.63
2022-09-18T02:10:42.295Z,1.60
2022-09-18T02:13:13.348Z,1.70
2022-09-18T02:15:42.132Z,1.60
2022-09-18T02:18:21.024Z,1.60
2022-09-18T02:20:48.540Z,1.48
2022-09-18T02:23:16.235Z,1.67
2022-09-18T02:25:53.469Z,1.58
2022-09-18T02:28:23.754Z,1.75
2022-09-18T02:30:50.484Z,2.25
2022-09-18T02:33:34.919Z,1.85
2022-09-18T02:36:24.980Z,1.90
2022-09-18T02:39:22.874Z,2.35
2022-09-18T02:42:00.382Z,1.52
2022-09-18T02:44:48.503Z,1.90
2022-09-18T02:47:39.006Z,2.05
2022-09-18T02:50:25.345Z,1.67
2022-09-18T02:53:12.308Z,1.60
2022-09-18T02:55:51.414Z,1.48
2022-09-18T02:58:44.287Z,1.55
2022-09-18T03:01:12.849Z,1.85
2022-09-18T03:03:40.950Z,1.33
2022-09-18T03:06:10.423Z,1.90
2022-09-18T03:08:37.934Z,2.00
2022-09-18T03:11:05.844Z,1.85
2022-09-18T03:13:32.705Z,2.10
2022-09-18T03:15:59.495Z,2.13
2022-09-18T03:18:26.835Z,2.00
2022-09-18T03:20:55.869Z,2.00
2022-09-18T03:23:23.726Z,1.95
2022-09-18T03:25:55.966Z,2.25
2022-09-18T03:28:22.735Z,2.00
2022-09-18T03:30:51.351Z,2.00
2022-09-18T03:33:19.227Z,2.35
2022-09-18T03:35:45.956Z,1.75
2022-09-18T03:38:14.070Z,1.60
2022-09-18T03:40:47.507Z,1.73
2022-09-18T03:43:14.927Z,1.92
2022-09-18T03:45:43.255Z,1.95
2022-09-18T03:48:10.108Z,2.20
2022-09-18T03:50:37.091Z,1.65
2022-09-18T03:53:05.521Z,1.83
2022-09-18T03:55:40.879Z,1.60
2022-09-18T03:58:25.671Z,1.92
2022-09-18T04:01:13.546Z,1.42
2022-09-18T04:04:03.309Z,1.58
2022-09-18T04:07:01.984Z,2.03
2022-09-18T04:09:47.271Z,1.83
2022-09-18T04:12:15.416Z,1.40
2022-09-18T04:14:44.679Z,1.52
2022-09-18T04:17:11.475Z,1.90
2022-09-18T04:19:38.531Z,1.60
2022-09-18T04:22:08.949Z,1.60
2022-09-18T04:24:39.533Z,1.73
2022-09-18T04:27:07.377Z,1.70
2022-09-18T04:29:35.047Z,2.00
2022-09-18T04:32:02.250Z,1.63
2022-09-18T04:34:29.188Z,1.50
2022-09-18T04:36:55.975Z,1.60
2022-09-18T04:39:30.273Z,1.90
2022-09-18T04:42:00.498Z,2.15
2022-09-18T04:44:27.499Z,1.70
2022-09-18T04:46:54.753Z,1.30
2022-09-18T04:49:21.594Z,1.42
2022-09-18T04:51:48.656Z,1.40
2022-09-18T04:54:16.150Z,1.77
2022-09-18T04:56:44.518Z,1.17
2022-09-18T04:59:12.198Z,1.17
2022-09-18T05:01:43.238Z,1.30
2022-09-18T05:04:12.012Z,1.10
2022-09-18T05:06:48.050Z,1.20
2022-09-18T05:09:15.657Z,1.60
2022-09-18T05:11:42.416Z,1.40
2022-09-18T05:14:09.163Z,1.13
2022-09-18T05:16:36.105Z,1.10
2022-09-18T05:19:20.221Z,1.20
2022-09-18T05:21:50.380Z,1.27
2022-09-18T05:24:18.257Z,1.20
2022-09-18T05:26:45.588Z,1.13
2022-09-18T05:29:12.381Z,0.90
2022-09-18T05:31:41.861Z,1.38
2022-09-18T05:34:08.834Z,1.17
2022-09-18T05:36:35.926Z,1.35
2022-09-18T05:39:03.145Z,1.45
2022-09-18T05:41:29.939Z,1.10
2022-09-18T05:43:56.712Z,1.65
2022-09-18T05:46:23.627Z,1.20
2022-09-18T05:48:56.641Z,1.20
2022-09-18T05:51:24.065Z,1.17
2022-09-18T05:53:50.841Z,1.25
2022-09-18T05:56:27.924Z,1.00
2022-09-18T05:58:55.654Z,1.30
2022-09-18T06:01:22.911Z,1.30
2022-09-18T06:04:09.555Z,1.30
2022-09-18T06:06:45.346Z,1.70
2022-09-18T06:09:14.358Z,1.38
2022-09-18T06:11:41.109Z,1.13
2022-09-18T06:14:08.058Z,1.27
2022-09-18T06:16:39.933Z,1.42
2022-09-18T06:19:09.564Z,1.23
2022-09-18T06:21:36.428Z,1.33
2022-09-18T06:24:05.426Z,1.50
2022-09-18T06:26:41.269Z,1.60
2022-09-18T06:29:08.011Z,1.60
2022-09-18T06:31:46.733Z,1.20
2022-09-18T06:34:20.147Z,1.35
2022-09-18T06:36:47.402Z,1.25
2022-09-18T06:39:24.433Z,1.23
2022-09-18T06:41:55.532Z,1.50
2022-09-18T06:44:42.560Z,1.30
2022-09-18T06:47:09.377Z,1.38
2022-09-18T06:49:41.870Z,1.60
2022-09-18T06:52:09.129Z,5.28
2022-09-18T06:54:37.384Z,3.05
2022-09-18T06:57:06.138Z,3.20
2022-09-18T06:59:32.907Z,3.63
2022-09-18T07:02:00.808Z,4.30
2022-09-18T07:04:53.753Z,1.65
2022-09-18T07:07:20.650Z,1.25
2022-09-18T07:09:50.268Z,1.55
2022-09-18T07:12:33.499Z,2.28
2022-09-18T07:15:03.085Z,1.10
2022-09-18T07:17:29.826Z,1.92
2022-09-18T07:19:57.485Z,1.20
2022-09-18T07:22:34.272Z,0.88
2022-09-18T07:25:03.495Z,0.60
2022-09-18T07:27:30.894Z,0.90
2022-09-18T07:29:58.791Z,1.00
2022-09-18T07:32:26.723Z,0.93
2022-09-18T07:34:54.583Z,0.70
2022-09-18T07:37:26.425Z,0.73
2022-09-18T07:40:09.678Z,0.65
2022-09-18T07:43:07.090Z,0.55
2022-09-18T07:45:36.064Z,0.63
2022-09-18T07:48:05.186Z,0.57
2022-09-18T07:50:36.244Z,0.70
2022-09-18T07:53:05.333Z,0.50
2022-09-18T07:55:36.998Z,0.50
2022-09-18T07:58:06.788Z,0.65
2022-09-18T08:01:03.536Z,0.90
2022-09-18T08:03:32.296Z,0.82
2022-09-18T08:06:10.973Z,0.70
2022-09-18T08:08:46.628Z,0.50
2022-09-18T08:11:23.548Z,0.60
2022-09-18T08:14:05.707Z,0.47
2022-09-18T08:16:39.699Z,0.55
2022-09-18T08:19:12.960Z,0.40
2022-09-18T08:21:43.099Z,0.50
2022-09-18T08:24:12.982Z,0.70
2022-09-18T08:26:40.613Z,0.93
2022-09-18T08:29:07.432Z,0.70
2022-09-18T08:31:36.571Z,0.88
2022-09-18T08:34:06.554Z,0.70
2022-09-18T08:36:33.320Z,0.40
2022-09-18T08:39:10.718Z,0.50
2022-09-18T08:42:03.727Z,0.55
2022-09-18T08:45:08.992Z,0.60
2022-09-18T08:47:47.571Z,0.80
2022-09-18T08:50:27.267Z,0.70
2022-09-18T08:53:05.868Z,0.63
2022-09-18T08:55:52.381Z,0.70
2022-09-18T08:58:44.846Z,0.75
2022-09-18T09:01:17.717Z,0.50
2022-09-18T09:04:02.160Z,2.45
2022-09-18T09:06:45.781Z,1.10
2022-09-18T09:09:30.643Z,0.93
2022-09-18T09:12:49.237Z,0.80
2022-09-18T09:15:50.322Z,1.00
2022-09-18T09:18:22.836Z,1.35
2022-09-18T09:20:59.379Z,0.60
2022-09-18T09:23:52.820Z,0.90
2022-09-18T09:26:35.786Z,0.80
2022-09-18T09:29:14.395Z,0.50
2022-09-18T09:32:47.861Z,0.70
2022-09-18T09:35:46.243Z,0.60
2022-09-18T09:38:31.887Z,0.75
2022-09-18T09:41:07.251Z,0.60
2022-09-18T09:43:42.842Z,0.82
2022-09-18T09:46:23.220Z,1.30
2022-09-18T09:48:59.695Z,0.63
2022-09-18T09:51:56.953Z,1.23
2022-09-18T09:54:24.722Z,1.00
2022-09-18T09:56:55.399Z,0.90
2022-09-18T09:59:47.613Z,1.10
2022-09-18T10:02:58.176Z,0.65
2022-09-18T10:05:38.806Z,0.70
2022-09-18T10:08:23.955Z,0.60
2022-09-18T10:10:58.535Z,0.45
2022-09-18T10:13:28.283Z,0.80
2022-09-18T10:16:08.647Z,0.80
2022-09-18T10:18:45.991Z,0.77
2022-09-18T10:21:19.526Z,0.70
2022-09-18T10:24:15.972Z,0.85
2022-09-18T10:27:11.836Z,0.57
2022-09-18T10:29:40.320Z,1.38
2022-09-18T10:32:12.733Z,1.98
2022-09-18T10:34:46.111Z,0.80
2022-09-18T10:37:38.436Z,1.10
2022-09-18T10:40:37.274Z,1.30
2022-09-18T10:43:26.498Z,0.52
2022-09-18T10:45:56.377Z,0.88
2022-09-18T10:48:44.016Z,1.02
2022-09-18T10:51:17.967Z,0.85
2022-09-18T10:54:22.931Z,1.00
2022-09-18T10:57:30.938Z,0.85
2022-09-18T11:00:02.704Z,1.00
2022-09-18T11:02:39.291Z,0.80
2022-09-18T11:05:19.647Z,0.70
2022-09-18T11:07:51.818Z,0.80
2022-09-18T11:10:21.949Z,0.65
2022-09-18T11:12:56.379Z,0.55
2022-09-18T11:15:35.743Z,0.70
2022-09-18T11:18:05.975Z,0.80
2022-09-18T11:20:42.743Z,0.68
2022-09-18T11:23:14.564Z,0.77
2022-09-18T11:25:41.978Z,1.38
2022-09-18T11:28:21.853Z,1.65
2022-09-18T11:31:15.244Z,1.15
2022-09-18T11:33:45.346Z,1.77
2022-09-18T11:36:16.124Z,0.70
2022-09-18T11:38:45.878Z,1.55
2022-09-18T11:41:21.379Z,1.33
2022-09-18T11:44:05.563Z,1.45
2022-09-18T11:46:51.977Z,0.70
2022-09-18T11:49:33.261Z,0.80
2022-09-18T11:52:10.216Z,0.80
2022-09-18T11:55:16.662Z,0.55
2022-09-18T11:57:48.708Z,0.60
2022-09-18T12:00:23.180Z,0.73
2022-09-18T12:03:23.076Z,0.77
2022-09-18T12:06:03.852Z,0.45
2022-09-18T12:09:06.461Z,0.90
2022-09-18T12:11:54.795Z,0.95
2022-09-18T12:14:46.195Z,0.70
2022-09-18T12:17:23.731Z,0.75
2022-09-18T12:19:58.540Z,0.60
2022-09-18T12:22:45.027Z,0.73
2022-09-18T12:25:16.801Z,0.90
2022-09-18T12:28:12.515Z,0.70
2022-09-18T12:30:59.302Z,0.80
2022-09-18T12:33:38.059Z,0.65
2022-09-18T12:36:26.443Z,1.10
2022-09-18T12:39:13.063Z,0.80
2022-09-18T12:42:13.469Z,1.23
2022-09-18T12:45:00.444Z,1.15
2022-09-18T12:47:44.302Z,1.45
2022-09-18T12:50:56.067Z,0.75
2022-09-18T12:53:37.747Z,2.92
2022-09-18T12:56:41.080Z,3.33
2022-09-18T12:59:36.203Z,4.68
2022-09-18T13:02:51.124Z,5.55
2022-09-18T13:05:32.657Z,7.63
2022-09-18T13:08:05.408Z,1.48
2022-09-18T13:10:44.309Z,1.38
2022-09-18T13:13:34.312Z,1.65
2022-09-18T13:16:11.541Z,2.00
2022-09-18T13:19:07.051Z,1.08
2022-09-18T13:21:44.775Z,0.65
2022-09-18T13:24:21.126Z,0.85
2022-09-18T13:26:50.857Z,1.20
2022-09-18T13:29:51.738Z,0.70
2022-09-18T13:32:19.559Z,1.75
2022-09-18T13:34:55.595Z,1.42
2022-09-18T13:37:25.801Z,1.30
2022-09-18T13:40:14.315Z,1.50
2022-09-18T13:42:43.312Z,0.90
2022-09-18T13:45:21.051Z,0.70
2022-09-18T13:48:04.965Z,0.80
2022-09-18T13:50:36.568Z,0.73
2022-09-18T13:53:05.067Z,1.23
2022-09-18T13:55:47.237Z,0.85
2022-09-18T13:58:33.313Z,0.75
2022-09-18T14:01:10.225Z,1.08
2022-09-18T14:03:41.833Z,1.00
2022-09-18T14:06:36.702Z,1.75
2022-09-18T14:09:41.966Z,4.25
2022-09-18T14:12:15.089Z,4.15
2022-09-18T14:14:43.551Z,2.80
2022-09-18T14:17:15.648Z,2.88
2022-09-18T14:19:45.934Z,1.00
2022-09-18T14:22:28.919Z,1.40
2022-09-18T14:25:00.099Z,1.30
2022-09-18T14:27:56.048Z,1.20
2022-09-18T14:30:26.711Z,1.30
2022-09-18T14:33:04.567Z,1.40
2022-09-18T14:36:02.479Z,0.95
2022-09-18T14:38:33.431Z,1.55
2022-09-18T14:41:19.339Z,1.92
2022-09-18T14:44:00.951Z,1.17
2022-09-18T14:46:28.348Z,0.90
2022-09-18T14:48:55.817Z,0.82
2022-09-18T14:51:25.703Z,0.82
2022-09-18T14:53:54.928Z,1.85
2022-09-18T14:56:34.006Z,1.27
2022-09-18T14:59:14.372Z,0.90
2022-09-18T15:01:41.164Z,1.30
2022-09-18T15:04:16.558Z,2.00
2022-09-18T15:06:51.422Z,0.70
2022-09-18T15:09:34.014Z,5.47
2022-09-18T15:12:02.899Z,2.03
2022-09-18T15:14:41.862Z,1.08
2022-09-18T15:17:26.671Z,1.10
2022-09-18T15:20:15.091Z,0.75
2022-09-18T15:22:42.012Z,0.77
2022-09-18T15:25:33.133Z,0.90
2022-09-18T15:28:04.104Z,0.70
2022-09-18T15:30:30.908Z,1.10
2022-09-18T15:33:06.322Z,1.33
2022-09-18T15:35:36.471Z,1.38
2022-09-18T15:38:15.975Z,1.63
2022-09-18T15:40:43.802Z,1.10
2022-09-18T15:43:29.655Z,0.82
2022-09-18T15:46:07.042Z,1.00
2022-09-18T15:48:45.247Z,1.00
2022-09-18T15:51:22.254Z,0.80
2022-09-18T15:54:02.753Z,1.20
2022-09-18T15:56:31.293Z,1.48
2022-09-18T15:58:59.990Z,0.93
2022-09-18T16:01:36.317Z,4.78
2022-09-18T16:04:15.986Z,1.02
2022-09-18T16:07:02.959Z,1.30
2022-09-18T16:09:37.578Z,1.05
2022-09-18T16:12:29.272Z,1.00
2022-09-18T16:15:11.062Z,0.73
2022-09-18T16:17:39.908Z,1.02
2022-09-18T16:20:28.360Z,0.90
2022-09-18T16:23:02.890Z,1.30
2022-09-18T16:25:30.378Z,1.13
2022-09-18T16:27:58.897Z,0.80
2022-09-18T16:30:28.155Z,0.88
2022-09-18T16:33:02.455Z,0.73
2022-09-18T16:35:29.210Z,0.73
2022-09-18T16:37:56.012Z,0.68
2022-09-18T16:40:27.694Z,0.95
2022-09-18T16:42:58.247Z,1.00
2022-09-18T16:45:28.907Z,1.20
2022-09-18T16:48:00.472Z,1.13
2022-09-18T16:50:27.914Z,1.75
2022-09-18T16:52:57.506Z,1.80
2022-09-18T16:55:26.517Z,2.65
2022-09-18T16:57:53.653Z,1.77
2022-09-18T17:00:20.462Z,2.85
2022-09-18T17:02:47.192Z,4.82
2022-09-18T17:05:13.995Z,3.70
2022-09-18T17:07:42.551Z,11.23
2022-09-18T17:10:12.966Z,4.72
2022-09-18T17:12:40.858Z,3.80
2022-09-18T17:15:10.198Z,3.15
2022-09-18T17:17:37.263Z,3.28
2022-09-18T17:20:05.501Z,3.22
2022-09-18T17:22:33.066Z,2.92
2022-09-18T17:25:00.200Z,2.08
2022-09-18T17:27:26.935Z,1.60
2022-09-18T17:29:53.651Z,1.23
2022-09-18T17:32:20.431Z,4.50
2022-09-18T17:34:47.174Z,2.75
2022-09-18T17:37:13.882Z,19.27
2022-09-18T17:39:40.670Z,13.90
2022-09-18T17:42:07.436Z,5.50
2022-09-18T17:44:35.337Z,3.13
2022-09-18T17:47:02.190Z,2.22
2022-09-18T17:49:32.250Z,2.25
2022-09-18T17:51:59.961Z,2.00
2022-09-18T17:54:27.691Z,1.02
2022-09-18T17:56:55.679Z,1.10
2022-09-18T17:59:22.783Z,1.23
2022-09-18T18:01:49.776Z,1.50
2022-09-18T18:04:16.778Z,2.03
2022-09-18T18:06:46.334Z,1.45
2022-09-18T18:09:13.074Z,2.15
2022-09-18T18:11:40.032Z,1.95
2022-09-18T18:14:06.965Z,2.25
2022-09-18T18:16:34.735Z,1.40
2022-09-18T18:19:05.221Z,3.35
2022-09-18T18:21:33.088Z,2.10
2022-09-18T18:24:04.725Z,1.70
2022-09-18T18:26:31.616Z,2.33
2022-09-18T18:28:58.438Z,2.10
2022-09-18T18:31:25.878Z,3.25
2022-09-18T18:33:54.775Z,1.55
2022-09-18T18:36:30.339Z,0.93
2022-09-18T18:38:59.459Z,1.00
2022-09-18T18:41:29.630Z,1.15
2022-09-18T18:43:58.878Z,1.35
2022-09-18T18:46:27.329Z,1.00
2022-09-18T18:49:01.974Z,1.73
2022-09-18T18:51:31.927Z,1.30
2022-09-18T18:54:03.586Z,2.00
2022-09-18T18:56:33.459Z,1.40
2022-09-18T18:59:02.092Z,1.50
2022-09-18T19:01:30.122Z,1.50
2022-09-18T19:04:04.880Z,1.40
2022-09-18T19:06:31.720Z,0.98
2022-09-18T19:09:01.217Z,1.52
2022-09-18T19:11:30.395Z,0.73
2022-09-18T19:13:57.487Z,0.70
2022-09-18T19:16:26.139Z,0.80
2022-09-18T19:18:54.811Z,2.55
2022-09-18T19:21:22.503Z,1.50
2022-09-18T19:23:54.185Z,1.85
2022-09-18T19:26:22.370Z,1.98
2022-09-18T19:28:54.466Z,0.82
2022-09-18T19:31:21.724Z,2.15
2022-09-18T19:33:52.252Z,2.50
2022-09-18T19:36:23.324Z,2.08
2022-09-18T19:38:52.025Z,2.80
2022-09-18T19:41:41.198Z,3.38
2022-09-18T19:44:17.922Z,1.65
2022-09-18T19:46:46.164Z,2.92
2022-09-18T19:49:17.350Z,3.65
2022-09-18T19:51:45.433Z,7.20
2022-09-18T19:54:12.377Z,7.40
2022-09-18T19:56:44.273Z,3.38
2022-09-18T19:59:11.513Z,2.65
2022-09-18T20:01:38.355Z,2.80
2022-09-18T20:04:05.253Z,1.90
2022-09-18T20:06:32.898Z,2.70
2022-09-18T20:09:00.524Z,2.08
2022-09-18T20:11:27.303Z,2.13
2022-09-18T20:13:54.112Z,3.00
2022-09-18T20:16:22.443Z,3.92
2022-09-18T20:18:49.967Z,2.50
2022-09-18T20:21:18.954Z,2.28
2022-09-18T20:23:46.882Z,1.27
2022-09-18T20:26:16.165Z,2.70
2022-09-18T20:28:43.666Z,2.60
2022-09-18T20:31:12.714Z,1.90
2022-09-18T20:33:39.483Z,1.15
2022-09-18T20:36:08.826Z,1.27
2022-09-18T20:38:38.388Z,1.30
2022-09-18T20:41:12.780Z,1.20
2022-09-18T20:43:41.779Z,1.02
2022-09-18T20:46:14.312Z,1.10
2022-09-18T20:48:45.305Z,1.98
2022-09-18T20:51:15.150Z,2.10
2022-09-18T20:53:46.392Z,2.63
2022-09-18T20:56:14.888Z,1.90
2022-09-18T20:58:44.978Z,1.58
2022-09-18T21:01:14.845Z,1.52
2022-09-18T21:03:43.431Z,1.65
2022-09-18T21:06:22.293Z,3.83
2022-09-18T21:08:53.400Z,2.05
2022-09-18T21:11:27.415Z,1.73
2022-09-18T21:13:56.860Z,1.23
2022-09-18T21:16:26.032Z,1.55
2022-09-18T21:18:57.651Z,1.15
2022-09-18T21:21:25.835Z,0.90
2022-09-18T21:23:53.488Z,1.05
2022-09-18T21:26:21.158Z,1.10
2022-09-18T21:29:01.710Z,1.17
2022-09-18T21:31:29.781Z,1.02
2022-09-18T21:33:57.242Z,1.00
2022-09-18T21:36:25.737Z,1.25
2022-09-18T21:38:54.385Z,1.20
2022-09-18T21:41:22.657Z,1.27
2022-09-18T21:43:50.628Z,0.98
2022-09-18T21:46:19.651Z,1.13
2022-09-18T21:48:48.317Z,1.30
2022-09-18T21:51:16.912Z,1.40
2022-09-18T21:53:44.910Z,1.20
2022-09-18T21:56:17.944Z,1.20
2022-09-18T21:58:46.301Z,1.30
2022-09-18T22:01:18.317Z,1.20
2022-09-18T22:04:05.319Z,1.10
2022-09-18T22:06:35.934Z,1.38
2022-09-18T22:09:08.582Z,1.10
2022-09-18T22:11:36.978Z,1.23
2022-09-18T22:14:07.031Z,1.30
2022-09-18T22:16:34.052Z,1.60
2022-09-18T22:19:01.287Z,1.45
2022-09-18T22:21:33.943Z,1.42
2022-09-18T22:24:06.423Z,1.10
2022-09-18T22:26:45.310Z,1.40
2022-09-18T22:29:18.205Z,1.27
2022-09-18T22:31:49.201Z,1.10
2022-09-18T22:34:23.239Z,1.20
2022-09-18T22:36:51.056Z,1.20
2022-09-18T22:39:19.286Z,1.40
2022-09-18T22:41:46.497Z,1.30
2022-09-18T22:44:14.595Z,1.23
2022-09-18T22:46:44.761Z,1.38
2022-09-18T22:49:16.758Z,1.38
2022-09-18T22:51:44.960Z,1.50
2022-09-18T22:54:12.924Z,1.30
2022-09-18T22:56:47.070Z,1.50
2022-09-18T22:59:15.799Z,1.70
2022-09-18T23:01:51.021Z,1.38
2022-09-18T23:04:19.491Z,1.60
2022-09-18T23:06:47.996Z,1.52
2022-09-18T23:09:16.643Z,1.10
2022-09-18T23:11:44.863Z,1.33
2022-09-18T23:14:18.337Z,1.20
2022-09-18T23:16:46.112Z,1.33
2022-09-18T23:19:16.898Z,1.00
2022-09-18T23:21:43.661Z,1.10
2022-09-18T23:24:11.172Z,1.30
2022-09-18T23:26:41.192Z,1.13
2022-09-18T23:29:12.934Z,1.33
2022-09-18T23:31:42.352Z,1.33
2022-09-18T23:34:13.351Z,1.13
2022-09-18T23:36:42.990Z,1.35
2022-09-18T23:39:15.468Z,1.15
2022-09-18T23:41:43.465Z,1.38
2022-09-18T23:44:12.688Z,1.27
2022-09-18T23:46:39.926Z,1.30
2022-09-18T23:49:08.354Z,0.90
2022-09-18T23:51:38.043Z,1.33
2022-09-18T23:54:07.107Z,1.63
2022-09-18T23:56:36.237Z,1.17
2022-09-18T23:59:05.759Z,1.20
